Red Fish — WDF3926 — position and weather

sailwx.info

Track history (hours):
 
Tides and Currents Weather Stations Pressure Air Temp Water Temp Dewpoint Dewpoint Depression Visibility Wind Speed Wind Dir Waves Ship Positions

Red Fish

Owner: Higman Barge Lines, Inc 1980 Post Oak Blvd., Suite 1101 Houston, Texas 77056, Orange, TX. More information available from US FCC via Universal Licensing System and Coast Guard Vessel Documentation Center.

Last reported at 2017-Aug-18 08:55 UTC. Time now 2017-Oct-17 08:06 UTC.
Position N 29°28' W 094°51'.
Warning: this ship's position is 59 days out of date.

Length 26 m; draft 2.9 m.

Type: Towing. MMSI: 367445690.

Date/timePositionNaut miles runAvg speedWind from/ knotsBaromVisibWave heightAir tempDewpointWater temp
2017-Aug-18 08:55N 29°28' W 094°51'3 5.8
2017-Aug-18 08:29N 29°30' W 094°52'3 6.1
2017-Aug-18 08:00N 29°32' W 094°54'3 6.9
2017-Aug-18 07:30N 29°35' W 094°56'3 6.7
2017-Aug-18 07:00N 29°38' W 094°58'3 6.8
2017-Aug-18 06:30N 29°41' W 094°59'3 6.2
2017-Aug-18 06:00N 29°44' W 095°02'4 6.5
2017-Aug-18 05:27N 29°46' W 095°05'0 1.0
2017-Aug-18 04:59N 29°46' W 095°05'0 0.1
2017-Aug-18 04:21N 29°46' W 095°06'2 5.1
2017-Aug-18 03:57N 29°44' W 095°07'4 0.4
2017-Aug-17 15:20N 29°44' W 095°12'2 4.7
2017-Aug-17 14:57N 29°45' W 095°10'3 7.2
2017-Aug-17 14:30N 29°45' W 095°06'1 2.8
2017-Aug-17 13:59N 29°46' W 095°06'3 5.8
2017-Aug-17 13:28N 29°44' W 095°08'3 0.2
2017-Aug-16 23:46N 29°45' W 095°12'0 0.0
2017-Aug-16 20:35N 29°45' W 095°12'0 0.5
2017-Aug-16 20:08N 29°45' W 095°11'1 4.2
2017-Aug-16 19:59N 29°45' W 095°11'2 4.2
2017-Aug-16 19:30N 29°44' W 095°09'2 4.2
2017-Aug-16 19:00N 29°45' W 095°06'1 2.3
2017-Aug-16 18:22N 29°46' W 095°05'0 0.0
2017-Aug-16 17:51N 29°46' W 095°05'0 0.0
2017-Aug-16 16:30N 29°46' W 095°05'0 0.0
2017-Aug-16 16:00N 29°46' W 095°05'0 0.0
2017-Aug-16 14:57N 29°46' W 095°05'0 0.0
2017-Aug-16 14:24N 29°46' W 095°05'0 0.0
2017-Aug-16 14:00N 29°46' W 095°05'2 3.2
2017-Aug-16 13:30N 29°45' W 095°06'0 0.3
2017-Aug-16 12:59N 29°45' W 095°07'0 0.0
2017-Aug-16 12:30N 29°45' W 095°06'2 1.3
2017-Aug-16 11:08N 29°46' W 095°05'0 0.0
2017-Aug-16 10:58N 29°46' W 095°05'0 0.0
2017-Aug-16 10:22N 29°46' W 095°05'0 0.0
2017-Aug-16 09:42N 29°46' W 095°05'0 0.0
2017-Aug-16 05:55N 29°46' W 095°05'0 0.0
2017-Aug-16 05:17N 29°46' W 095°05'0 0.0
2017-Aug-16 04:57N 29°46' W 095°05'0 0.0
2017-Aug-16 04:27N 29°46' W 095°05'0 0.0
2017-Aug-16 03:51N 29°46' W 095°05'0 0.0
2017-Aug-16 03:16N 29°46' W 095°05'0 0.0
2017-Aug-16 02:35N 29°46' W 095°05'0 0.0
2017-Aug-16 02:24N 29°46' W 095°05'0 0.0
2017-Aug-16 00:19N 29°46' W 095°05'0 0.0
2017-Aug-15 20:51N 29°46' W 095°05'0 0.0
2017-Aug-15 20:25N 29°46' W 095°05'0 0.0
2017-Aug-15 19:58N 29°46' W 095°05'0 0.0
2017-Aug-15 19:21N 29°46' W 095°05'0 0.0
2017-Aug-15 17:44N 29°46' W 095°05'0 0.0
2017-Aug-15 17:28N 29°46' W 095°05'0 0.0
2017-Aug-15 16:11N 29°46' W 095°05'0 0.0
2017-Aug-15 15:59N 29°46' W 095°05'0 0.0
2017-Aug-15 15:25N 29°46' W 095°05'0 0.0
2017-Aug-15 14:57N 29°46' W 095°05'0 0.0
2017-Aug-15 14:10N 29°46' W 095°05'0 0.0
2017-Aug-15 13:58N 29°46' W 095°05'0 0.0
2017-Aug-15 13:20N 29°46' W 095°05'0 0.0
2017-Aug-15 12:59N 29°46' W 095°05'0 0.0
2017-Aug-15 12:25N 29°46' W 095°05'0 0.0
2017-Aug-15 11:55N 29°46' W 095°05'0 0.0
2017-Aug-15 11:28N 29°46' W 095°05'0 0.0
2017-Aug-15 10:37N 29°46' W 095°05'0 0.0
2017-Aug-15 10:19N 29°46' W 095°05'0 0.0
2017-Aug-15 09:59N 29°46' W 095°05'0 0.0
2017-Aug-15 09:27N 29°46' W 095°05'0 0.0
2017-Aug-15 08:57N 29°46' W 095°05'0 0.0
2017-Aug-15 08:24N 29°46' W 095°05'0 0.0
2017-Aug-15 07:36N 29°46' W 095°05'0 0.0
2017-Aug-15 07:20N 29°46' W 095°05'0 0.0
2017-Aug-15 06:59N 29°46' W 095°05'0 0.0
2017-Aug-15 06:30N 29°46' W 095°05'0 0.0
2017-Aug-15 05:59N 29°46' W 095°05'0 0.0
2017-Aug-15 05:27N 29°46' W 095°05'0 0.0
2017-Aug-15 03:42N 29°46' W 095°05'0 0.0
2017-Aug-15 01:47N 29°46' W 095°05'0 0.0
2017-Aug-14 23:34N 29°46' W 095°05'0 0.0
2017-Aug-14 23:26N 29°46' W 095°05'0 0.0
2017-Aug-14 22:53N 29°46' W 095°05'0 0.0
2017-Aug-14 22:13N 29°46' W 095°05'0 0.0
2017-Aug-14 21:40N 29°46' W 095°05'0 0.0
2017-Aug-14 21:23N 29°46' W 095°05'0 0.0
2017-Aug-14 19:48N 29°46' W 095°05'0 0.0
2017-Aug-14 18:31N 29°46' W 095°05'0 0.0
2017-Aug-14 18:21N 29°46' W 095°05'2 6.3
2017-Aug-14 18:00N 29°44' W 095°07'1 0.5
2017-Aug-14 15:30N 29°44' W 095°08'3 6.5
2017-Aug-14 15:00N 29°46' W 095°05'0 0.1
2017-Aug-14 14:11N 29°46' W 095°05'0 0.0
2017-Aug-14 13:42N 29°46' W 095°05'0 0.0
2017-Aug-14 13:28N 29°46' W 095°05'0 0.0
2017-Aug-14 12:50N 29°46' W 095°05'0 0.0
2017-Aug-14 12:29N 29°46' W 095°05'0 0.0
2017-Aug-14 12:00N 29°46' W 095°05'1 1.2
2017-Aug-14 11:29N 29°45' W 095°06'4 7.2
2017-Aug-14 11:00N 29°44' W 095°09'4 5.7
2017-Aug-14 10:22N 29°44' W 095°13'0 1.1
2017-Aug-14 10:00N 29°44' W 095°14'0 0.1
2017-Aug-14 09:30N 29°44' W 095°14'0 0.0
2017-Aug-14 09:00N 29°44' W 095°14'0 0.0
2017-Aug-14 08:30N 29°44' W 095°14'0 0.0
2017-Aug-14 08:00N 29°44' W 095°14'0 0.0
2017-Aug-14 07:30N 29°44' W 095°14'0 0.0
2017-Aug-14 06:56N 29°44' W 095°14'0 0.0
2017-Aug-14 06:30N 29°44' W 095°14'0 0.0
2017-Aug-14 05:23N 29°44' W 095°14'0 0.0
2017-Aug-14 04:17N 29°44' W 095°14'0 0.0
2017-Aug-14 03:59N 29°44' W 095°14'0 0.0
2017-Aug-14 03:29N 29°44' W 095°14'0 0.0
2017-Aug-14 02:57N 29°44' W 095°14'0 0.0
2017-Aug-14 02:22N 29°44' W 095°14'0 0.0
2017-Aug-14 02:00N 29°44' W 095°14'0 0.0
2017-Aug-14 01:30N 29°44' W 095°14'0 0.0
2017-Aug-14 01:00N 29°44' W 095°14'0 0.0
2017-Aug-14 00:30N 29°44' W 095°14'0 0.0
2017-Aug-14 00:00N 29°44' W 095°14'0 0.0
2017-Aug-13 23:30N 29°44' W 095°14'0 0.0
2017-Aug-13 23:00N 29°44' W 095°14'0 0.0
2017-Aug-13 22:30N 29°44' W 095°14'0 0.0
2017-Aug-13 21:59N 29°44' W 095°14'0 0.0
2017-Aug-13 21:30N 29°44' W 095°14'0 0.2
2017-Aug-13 20:55N 29°43' W 095°14'0 0.2
2017-Aug-13 20:28N 29°44' W 095°14'0 0.0
2017-Aug-13 20:00N 29°44' W 095°14'0 0.0
2017-Aug-13 19:30N 29°44' W 095°14'0 0.0
2017-Aug-13 19:00N 29°44' W 095°14'0 0.0
2017-Aug-13 18:30N 29°44' W 095°14'0 0.0
2017-Aug-13 18:00N 29°44' W 095°14'0 0.0
2017-Aug-13 17:30N 29°44' W 095°14'0 0.0
2017-Aug-13 17:00N 29°44' W 095°14'0 0.0
2017-Aug-13 16:30N 29°44' W 095°14'0 0.0
2017-Aug-13 16:00N 29°44' W 095°14'0 0.0
2017-Aug-13 15:30N 29°44' W 095°14'0 0.0
2017-Aug-13 15:00N 29°44' W 095°14'0 0.0
2017-Aug-13 14:30N 29°44' W 095°14'0 0.0
2017-Aug-13 14:00N 29°44' W 095°14'0 0.0
2017-Aug-13 13:30N 29°44' W 095°14'0 0.0
2017-Aug-13 13:00N 29°44' W 095°14'0 0.0
2017-Aug-13 12:30N 29°44' W 095°14'0 0.0
2017-Aug-13 11:58N 29°44' W 095°14'0 0.0
2017-Aug-13 11:30N 29°44' W 095°14'0 0.0
2017-Aug-13 10:59N 29°44' W 095°14'0 0.0
2017-Aug-13 10:29N 29°44' W 095°14'0 0.0
2017-Aug-13 09:59N 29°44' W 095°14'0 0.0
2017-Aug-13 09:25N 29°44' W 095°14'0 0.0
2017-Aug-13 08:53N 29°44' W 095°14'0 0.0
2017-Aug-13 08:23N 29°44' W 095°14'0 0.0
2017-Aug-13 06:34N 29°44' W 095°14'0 0.1
2017-Aug-13 06:30N 29°44' W 095°14'0 0.0
2017-Aug-13 03:51N 29°44' W 095°14'0 0.0
2017-Aug-13 03:29N 29°44' W 095°14'0 0.0
2017-Aug-13 02:55N 29°44' W 095°14'0 0.0
2017-Aug-13 02:29N 29°44' W 095°14'0 0.0
2017-Aug-13 01:57N 29°44' W 095°14'0 0.1
2017-Aug-13 01:26N 29°44' W 095°14'3 6.4
2017-Aug-13 00:59N 29°45' W 095°11'4 7.4
2017-Aug-13 00:30N 29°44' W 095°07'2 1.9
2017-Aug-12 23:14N 29°46' W 095°05'0 0.0
2017-Aug-12 22:53N 29°46' W 095°05'0 0.0
2017-Aug-12 21:56N 29°46' W 095°05'0 0.2
2017-Aug-12 21:25N 29°46' W 095°05'3 5.7
2017-Aug-12 20:59N 29°44' W 095°07'3 5.1
2017-Aug-12 20:29N 29°44' W 095°10'2 4.5
2017-Aug-12 20:00N 29°44' W 095°12'2 0.1
2017-Aug-12 01:02N 29°43' W 095°15'1 7.1
2017-Aug-12 00:56N 29°44' W 095°14'3 6.7
2017-Aug-12 00:29N 29°45' W 095°11'3 6.7
2017-Aug-12 00:00N 29°44' W 095°07'4 7.2
2017-Aug-11 23:30N 29°47' W 095°04'0 1.0
2017-Aug-11 23:00N 29°47' W 095°05'0 0.0
2017-Aug-11 22:28N 29°47' W 095°05'0 0.0
2017-Aug-11 22:00N 29°47' W 095°05'1 1.3
2017-Aug-11 21:30N 29°47' W 095°05'2 3.6
2017-Aug-11 20:59N 29°46' W 095°06'3 5.5
2017-Aug-11 20:29N 29°48' W 095°04'0 0.0
2017-Aug-11 18:22N 29°48' W 095°04'3 6.9
2017-Aug-11 17:59N 29°45' W 095°06'4 7.5
2017-Aug-11 17:30N 29°45' W 095°10'5 3.7
2017-Aug-11 16:14N 29°43' W 095°15'0 0.7
2017-Aug-11 15:47N 29°43' W 095°15'3 5.6
2017-Aug-11 15:12N 29°45' W 095°11'1 5.9
2017-Aug-11 15:00N 29°45' W 095°10'5 4.7
2017-Aug-11 13:58N 29°46' W 095°05'0 0.1
2017-Aug-11 12:44N 29°46' W 095°05'0 0.0
2017-Aug-11 12:15N 29°46' W 095°05'0 0.0
2017-Aug-11 09:03N 29°46' W 095°05'0 0.0
2017-Aug-11 08:59N 29°46' W 095°05'0 0.0
2017-Aug-11 08:30N 29°46' W 095°05'0 0.0
2017-Aug-11 07:50N 29°46' W 095°05'0 0.0
2017-Aug-11 07:22N 29°46' W 095°05'0 0.0
2017-Aug-11 06:49N 29°46' W 095°05'0 0.0
2017-Aug-11 06:28N 29°46' W 095°05'0 0.0
2017-Aug-11 05:57N 29°46' W 095°05'0 0.0
2017-Aug-11 05:30N 29°46' W 095°05'0 0.0
2017-Aug-11 04:58N 29°46' W 095°05'0 0.0
2017-Aug-11 04:26N 29°46' W 095°05'0 0.0
2017-Aug-11 02:20N 29°46' W 095°05'0 0.1
2017-Aug-11 02:00N 29°46' W 095°05'0 0.0
2017-Aug-11 01:30N 29°46' W 095°05'0 0.1
2017-Aug-11 01:00N 29°46' W 095°05'1 2.5
2017-Aug-11 00:30N 29°45' W 095°04'3 5.9
2017-Aug-11 00:00N 29°43' W 095°01'3 5.4
2017-Aug-10 23:30N 29°41' W 094°59'3 5.6
2017-Aug-10 23:00N 29°39' W 094°58'3 6.1
2017-Aug-10 22:30N 29°36' W 094°57'3 6.4
2017-Aug-10 22:00N 29°33' W 094°55'3 7.0
2017-Aug-10 21:30N 29°30' W 094°52'67 4.7
2017-Aug-10 07:06N 30°02' W 093°44'1 6.9
2017-Aug-10 06:59N 30°03' W 093°44'3 5.8
2017-Aug-10 06:30N 30°04' W 093°41'3 5.3
2017-Aug-10 06:00N 30°04' W 093°38'3 5.1
2017-Aug-10 05:30N 30°04' W 093°35'2 4.7
2017-Aug-10 05:00N 30°04' W 093°32'2 4.8
2017-Aug-10 04:30N 30°04' W 093°29'2 4.8
2017-Aug-10 04:00N 30°04' W 093°26'2 4.7
2017-Aug-10 03:30N 30°04' W 093°24'2 4.1
2017-Aug-10 03:00N 30°04' W 093°21'1 2.3
2017-Aug-10 02:30N 30°05' W 093°20'2 3.8
2017-Aug-10 02:00N 30°06' W 093°19'1 2.8
2017-Aug-10 01:30N 30°05' W 093°18'1 1.6
2017-Aug-10 01:00N 30°05' W 093°17'0 0.0
2017-Aug-10 00:30N 30°05' W 093°17'2 3.3
2017-Aug-10 00:00N 30°03' W 093°16'2 4.0
2017-Aug-09 23:30N 30°02' W 093°14'2 4.3
2017-Aug-09 23:00N 29°60' W 093°13'1 2.0
2017-Aug-09 22:30N 29°59' W 093°12'2 3.7
2017-Aug-09 22:00N 29°58' W 093°11'2 4.7
2017-Aug-09 21:30N 29°56' W 093°09'2 4.6
2017-Aug-09 21:00N 29°56' W 093°06'2 4.4
2017-Aug-09 20:30N 29°56' W 093°04'37 4.6
2017-Aug-09 12:28N 29°51' W 092°21'2 4.8
2017-Aug-09 12:00N 29°50' W 092°19'2 3.7
2017-Aug-09 11:30N 29°49' W 092°17'2 3.8
2017-Aug-09 11:00N 29°48' W 092°15'2 4.9
2017-Aug-09 10:30N 29°47' W 092°13'2 3.3
2017-Aug-09 10:00N 29°47' W 092°11'1 1.9
2017-Aug-09 09:30N 29°47' W 092°10'2 3.9
2017-Aug-09 09:00N 29°47' W 092°08'2 4.8
2017-Aug-09 08:30N 29°48' W 092°05'2 4.7
2017-Aug-09 08:00N 29°49' W 092°02'3 4.6
2017-Aug-09 07:27N 29°50' W 091°60'4 4.7
2017-Aug-09 06:39N 29°51' W 091°56'1 4.6
2017-Aug-09 06:27N 29°51' W 091°54'51 4.4
2017-Aug-08 18:58N 29°36' W 090°58'2 4.9
2017-Aug-08 18:30N 29°34' W 090°57'4 5.2
2017-Aug-08 17:46N 29°32' W 090°53'1 5.1
2017-Aug-08 17:30N 29°32' W 090°51'3 5.5
2017-Aug-08 17:00N 29°32' W 090°48'2 4.7
2017-Aug-08 16:30N 29°33' W 090°45'2 3.9
2017-Aug-08 16:00N 29°34' W 090°44'2 3.2
2017-Aug-08 15:30N 29°35' W 090°43'2 3.1
2017-Aug-08 15:00N 29°37' W 090°42'1 1.5
2017-Aug-08 14:30N 29°37' W 090°41'0 0.2
2017-Aug-08 14:00N 29°36' W 090°41'1 2.5
2017-Aug-08 13:30N 29°36' W 090°40'2 4.4
2017-Aug-08 13:00N 29°35' W 090°38'2 4.3
2017-Aug-08 12:30N 29°35' W 090°35'2 4.8
2017-Aug-08 12:00N 29°34' W 090°33'2 4.8
2017-Aug-08 11:30N 29°34' W 090°30'3 5.1
2017-Aug-08 10:52N 29°33' W 090°26'  
Track history (hours):
 
Tides and Currents Weather Stations Pressure Air Temp Water Temp Dewpoint Dewpoint Depression Visibility Wind Speed Wind Dir Waves Ship Positions

Red Fish

Owner: Higman Barge Lines, Inc 1980 Post Oak Blvd., Suite 1101 Houston, Texas 77056, Orange, TX. More information available from US FCC via Universal Licensing System and Coast Guard Vessel Documentation Center.

Last reported at 2017-Aug-18 08:55 UTC. Time now 2017-Oct-17 08:06 UTC.
Position N 29°28' W 094°51'.
Warning: this ship's position is 59 days out of date.

Length 26 m; draft 2.9 m.

Type: Towing. MMSI: 367445690.

Date/timePositionNaut miles runAvg speedWind from/ knotsBaromVisibWave heightAir tempDewpointWater temp
2017-Aug-18 08:55N 29°28' W 094°51'3 5.8
2017-Aug-18 08:29N 29°30' W 094°52'3 6.1
2017-Aug-18 08:00N 29°32' W 094°54'3 6.9
2017-Aug-18 07:30N 29°35' W 094°56'3 6.7
2017-Aug-18 07:00N 29°38' W 094°58'3 6.8
2017-Aug-18 06:30N 29°41' W 094°59'3 6.2
2017-Aug-18 06:00N 29°44' W 095°02'4 6.5
2017-Aug-18 05:27N 29°46' W 095°05'0 1.0
2017-Aug-18 04:59N 29°46' W 095°05'0 0.1
2017-Aug-18 04:21N 29°46' W 095°06'2 5.1
2017-Aug-18 03:57N 29°44' W 095°07'4 0.4
2017-Aug-17 15:20N 29°44' W 095°12'2 4.7
2017-Aug-17 14:57N 29°45' W 095°10'3 7.2
2017-Aug-17 14:30N 29°45' W 095°06'1 2.8
2017-Aug-17 13:59N 29°46' W 095°06'3 5.8
2017-Aug-17 13:28N 29°44' W 095°08'3 0.2
2017-Aug-16 23:46N 29°45' W 095°12'0 0.0
2017-Aug-16 20:35N 29°45' W 095°12'0 0.5
2017-Aug-16 20:08N 29°45' W 095°11'1 4.2
2017-Aug-16 19:59N 29°45' W 095°11'2 4.2
2017-Aug-16 19:30N 29°44' W 095°09'2 4.2
2017-Aug-16 19:00N 29°45' W 095°06'1 2.3
2017-Aug-16 18:22N 29°46' W 095°05'0 0.0
2017-Aug-16 17:51N 29°46' W 095°05'0 0.0
2017-Aug-16 16:30N 29°46' W 095°05'0 0.0
2017-Aug-16 16:00N 29°46' W 095°05'0 0.0
2017-Aug-16 14:57N 29°46' W 095°05'0 0.0
2017-Aug-16 14:24N 29°46' W 095°05'0 0.0
2017-Aug-16 14:00N 29°46' W 095°05'2 3.2
2017-Aug-16 13:30N 29°45' W 095°06'0 0.3
2017-Aug-16 12:59N 29°45' W 095°07'0 0.0
2017-Aug-16 12:30N 29°45' W 095°06'2 1.3
2017-Aug-16 11:08N 29°46' W 095°05'0 0.0
2017-Aug-16 10:58N 29°46' W 095°05'0 0.0
2017-Aug-16 10:22N 29°46' W 095°05'0 0.0
2017-Aug-16 09:42N 29°46' W 095°05'0 0.0
2017-Aug-16 05:55N 29°46' W 095°05'0 0.0
2017-Aug-16 05:17N 29°46' W 095°05'0 0.0
2017-Aug-16 04:57N 29°46' W 095°05'0 0.0
2017-Aug-16 04:27N 29°46' W 095°05'0 0.0
2017-Aug-16 03:51N 29°46' W 095°05'0 0.0
2017-Aug-16 03:16N 29°46' W 095°05'0 0.0
2017-Aug-16 02:35N 29°46' W 095°05'0 0.0
2017-Aug-16 02:24N 29°46' W 095°05'0 0.0
2017-Aug-16 00:19N 29°46' W 095°05'0 0.0
2017-Aug-15 20:51N 29°46' W 095°05'0 0.0
2017-Aug-15 20:25N 29°46' W 095°05'0 0.0
2017-Aug-15 19:58N 29°46' W 095°05'0 0.0
2017-Aug-15 19:21N 29°46' W 095°05'0 0.0
2017-Aug-15 17:44N 29°46' W 095°05'0 0.0
2017-Aug-15 17:28N 29°46' W 095°05'0 0.0
2017-Aug-15 16:11N 29°46' W 095°05'0 0.0
2017-Aug-15 15:59N 29°46' W 095°05'0 0.0
2017-Aug-15 15:25N 29°46' W 095°05'0 0.0
2017-Aug-15 14:57N 29°46' W 095°05'0 0.0
2017-Aug-15 14:10N 29°46' W 095°05'0 0.0
2017-Aug-15 13:58N 29°46' W 095°05'0 0.0
2017-Aug-15 13:20N 29°46' W 095°05'0 0.0
2017-Aug-15 12:59N 29°46' W 095°05'0 0.0
2017-Aug-15 12:25N 29°46' W 095°05'0 0.0
2017-Aug-15 11:55N 29°46' W 095°05'0 0.0
2017-Aug-15 11:28N 29°46' W 095°05'0 0.0
2017-Aug-15 10:37N 29°46' W 095°05'0 0.0
2017-Aug-15 10:19N 29°46' W 095°05'0 0.0
2017-Aug-15 09:59N 29°46' W 095°05'0 0.0
2017-Aug-15 09:27N 29°46' W 095°05'0 0.0
2017-Aug-15 08:57N 29°46' W 095°05'0 0.0
2017-Aug-15 08:24N 29°46' W 095°05'0 0.0
2017-Aug-15 07:36N 29°46' W 095°05'0 0.0
2017-Aug-15 07:20N 29°46' W 095°05'0 0.0
2017-Aug-15 06:59N 29°46' W 095°05'0 0.0
2017-Aug-15 06:30N 29°46' W 095°05'0 0.0
2017-Aug-15 05:59N 29°46' W 095°05'0 0.0
2017-Aug-15 05:27N 29°46' W 095°05'0 0.0
2017-Aug-15 03:42N 29°46' W 095°05'0 0.0
2017-Aug-15 01:47N 29°46' W 095°05'0 0.0
2017-Aug-14 23:34N 29°46' W 095°05'0 0.0
2017-Aug-14 23:26N 29°46' W 095°05'0 0.0
2017-Aug-14 22:53N 29°46' W 095°05'0 0.0
2017-Aug-14 22:13N 29°46' W 095°05'0 0.0
2017-Aug-14 21:40N 29°46' W 095°05'0 0.0
2017-Aug-14 21:23N 29°46' W 095°05'0 0.0
2017-Aug-14 19:48N 29°46' W 095°05'0 0.0
2017-Aug-14 18:31N 29°46' W 095°05'0 0.0
2017-Aug-14 18:21N 29°46' W 095°05'2 6.3
2017-Aug-14 18:00N 29°44' W 095°07'1 0.5
2017-Aug-14 15:30N 29°44' W 095°08'3 6.5
2017-Aug-14 15:00N 29°46' W 095°05'0 0.1
2017-Aug-14 14:11N 29°46' W 095°05'0 0.0
2017-Aug-14 13:42N 29°46' W 095°05'0 0.0
2017-Aug-14 13:28N 29°46' W 095°05'0 0.0
2017-Aug-14 12:50N 29°46' W 095°05'0 0.0
2017-Aug-14 12:29N 29°46' W 095°05'0 0.0
2017-Aug-14 12:00N 29°46' W 095°05'1 1.2
2017-Aug-14 11:29N 29°45' W 095°06'4 7.2
2017-Aug-14 11:00N 29°44' W 095°09'4 5.7
2017-Aug-14 10:22N 29°44' W 095°13'0 1.1
2017-Aug-14 10:00N 29°44' W 095°14'0 0.1
2017-Aug-14 09:30N 29°44' W 095°14'0 0.0
2017-Aug-14 09:00N 29°44' W 095°14'0 0.0
2017-Aug-14 08:30N 29°44' W 095°14'0 0.0
2017-Aug-14 08:00N 29°44' W 095°14'0 0.0
2017-Aug-14 07:30N 29°44' W 095°14'0 0.0
2017-Aug-14 06:56N 29°44' W 095°14'0 0.0
2017-Aug-14 06:30N 29°44' W 095°14'0 0.0
2017-Aug-14 05:23N 29°44' W 095°14'0 0.0
2017-Aug-14 04:17N 29°44' W 095°14'0 0.0
2017-Aug-14 03:59N 29°44' W 095°14'0 0.0
2017-Aug-14 03:29N 29°44' W 095°14'0 0.0
2017-Aug-14 02:57N 29°44' W 095°14'0 0.0
2017-Aug-14 02:22N 29°44' W 095°14'0 0.0
2017-Aug-14 02:00N 29°44' W 095°14'0 0.0
2017-Aug-14 01:30N 29°44' W 095°14'0 0.0
2017-Aug-14 01:00N 29°44' W 095°14'0 0.0
2017-Aug-14 00:30N 29°44' W 095°14'0 0.0
2017-Aug-14 00:00N 29°44' W 095°14'0 0.0
2017-Aug-13 23:30N 29°44' W 095°14'0 0.0
2017-Aug-13 23:00N 29°44' W 095°14'0 0.0
2017-Aug-13 22:30N 29°44' W 095°14'0 0.0
2017-Aug-13 21:59N 29°44' W 095°14'0 0.0
2017-Aug-13 21:30N 29°44' W 095°14'0 0.2
2017-Aug-13 20:55N 29°43' W 095°14'0 0.2
2017-Aug-13 20:28N 29°44' W 095°14'0 0.0
2017-Aug-13 20:00N 29°44' W 095°14'0 0.0
2017-Aug-13 19:30N 29°44' W 095°14'0 0.0
2017-Aug-13 19:00N 29°44' W 095°14'0 0.0
2017-Aug-13 18:30N 29°44' W 095°14'0 0.0
2017-Aug-13 18:00N 29°44' W 095°14'0 0.0
2017-Aug-13 17:30N 29°44' W 095°14'0 0.0
2017-Aug-13 17:00N 29°44' W 095°14'0 0.0
2017-Aug-13 16:30N 29°44' W 095°14'0 0.0
2017-Aug-13 16:00N 29°44' W 095°14'0 0.0
2017-Aug-13 15:30N 29°44' W 095°14'0 0.0
2017-Aug-13 15:00N 29°44' W 095°14'0 0.0
2017-Aug-13 14:30N 29°44' W 095°14'0 0.0
2017-Aug-13 14:00N 29°44' W 095°14'0 0.0
2017-Aug-13 13:30N 29°44' W 095°14'0 0.0
2017-Aug-13 13:00N 29°44' W 095°14'0 0.0
2017-Aug-13 12:30N 29°44' W 095°14'0 0.0
2017-Aug-13 11:58N 29°44' W 095°14'0 0.0
2017-Aug-13 11:30N 29°44' W 095°14'0 0.0
2017-Aug-13 10:59N 29°44' W 095°14'0 0.0
2017-Aug-13 10:29N 29°44' W 095°14'0 0.0
2017-Aug-13 09:59N 29°44' W 095°14'0 0.0
2017-Aug-13 09:25N 29°44' W 095°14'0 0.0
2017-Aug-13 08:53N 29°44' W 095°14'0 0.0
2017-Aug-13 08:23N 29°44' W 095°14'0 0.0
2017-Aug-13 06:34N 29°44' W 095°14'0 0.1
2017-Aug-13 06:30N 29°44' W 095°14'0 0.0
2017-Aug-13 03:51N 29°44' W 095°14'0 0.0
2017-Aug-13 03:29N 29°44' W 095°14'0 0.0
2017-Aug-13 02:55N 29°44' W 095°14'0 0.0
2017-Aug-13 02:29N 29°44' W 095°14'0 0.0
2017-Aug-13 01:57N 29°44' W 095°14'0 0.1
2017-Aug-13 01:26N 29°44' W 095°14'3 6.4
2017-Aug-13 00:59N 29°45' W 095°11'4 7.4
2017-Aug-13 00:30N 29°44' W 095°07'2 1.9
2017-Aug-12 23:14N 29°46' W 095°05'0 0.0
2017-Aug-12 22:53N 29°46' W 095°05'0 0.0
2017-Aug-12 21:56N 29°46' W 095°05'0 0.2
2017-Aug-12 21:25N 29°46' W 095°05'3 5.7
2017-Aug-12 20:59N 29°44' W 095°07'3 5.1
2017-Aug-12 20:29N 29°44' W 095°10'2 4.5
2017-Aug-12 20:00N 29°44' W 095°12'2 0.1
2017-Aug-12 01:02N 29°43' W 095°15'1 7.1
2017-Aug-12 00:56N 29°44' W 095°14'3 6.7
2017-Aug-12 00:29N 29°45' W 095°11'3 6.7
2017-Aug-12 00:00N 29°44' W 095°07'4 7.2
2017-Aug-11 23:30N 29°47' W 095°04'0 1.0
2017-Aug-11 23:00N 29°47' W 095°05'0 0.0
2017-Aug-11 22:28N 29°47' W 095°05'0 0.0
2017-Aug-11 22:00N 29°47' W 095°05'1 1.3
2017-Aug-11 21:30N 29°47' W 095°05'2 3.6
2017-Aug-11 20:59N 29°46' W 095°06'3 5.5
2017-Aug-11 20:29N 29°48' W 095°04'0 0.0
2017-Aug-11 18:22N 29°48' W 095°04'3 6.9
2017-Aug-11 17:59N 29°45' W 095°06'4 7.5
2017-Aug-11 17:30N 29°45' W 095°10'5 3.7
2017-Aug-11 16:14N 29°43' W 095°15'0 0.7
2017-Aug-11 15:47N 29°43' W 095°15'3 5.6
2017-Aug-11 15:12N 29°45' W 095°11'1 5.9
2017-Aug-11 15:00N 29°45' W 095°10'5 4.7
2017-Aug-11 13:58N 29°46' W 095°05'0 0.1
2017-Aug-11 12:44N 29°46' W 095°05'0 0.0
2017-Aug-11 12:15N 29°46' W 095°05'0 0.0
2017-Aug-11 09:03N 29°46' W 095°05'0 0.0
2017-Aug-11 08:59N 29°46' W 095°05'0 0.0
2017-Aug-11 08:30N 29°46' W 095°05'0 0.0
2017-Aug-11 07:50N 29°46' W 095°05'0 0.0
2017-Aug-11 07:22N 29°46' W 095°05'0 0.0
2017-Aug-11 06:49N 29°46' W 095°05'0 0.0
2017-Aug-11 06:28N 29°46' W 095°05'0 0.0
2017-Aug-11 05:57N 29°46' W 095°05'0 0.0
2017-Aug-11 05:30N 29°46' W 095°05'0 0.0
2017-Aug-11 04:58N 29°46' W 095°05'0 0.0
2017-Aug-11 04:26N 29°46' W 095°05'0 0.0
2017-Aug-11 02:20N 29°46' W 095°05'0 0.1
2017-Aug-11 02:00N 29°46' W 095°05'0 0.0
2017-Aug-11 01:30N 29°46' W 095°05'0 0.1
2017-Aug-11 01:00N 29°46' W 095°05'1 2.5
2017-Aug-11 00:30N 29°45' W 095°04'3 5.9
2017-Aug-11 00:00N 29°43' W 095°01'3 5.4
2017-Aug-10 23:30N 29°41' W 094°59'3 5.6
2017-Aug-10 23:00N 29°39' W 094°58'3 6.1
2017-Aug-10 22:30N 29°36' W 094°57'3 6.4
2017-Aug-10 22:00N 29°33' W 094°55'3 7.0
2017-Aug-10 21:30N 29°30' W 094°52'67 4.7
2017-Aug-10 07:06N 30°02' W 093°44'1 6.9
2017-Aug-10 06:59N 30°03' W 093°44'3 5.8
2017-Aug-10 06:30N 30°04' W 093°41'3 5.3
2017-Aug-10 06:00N 30°04' W 093°38'3 5.1
2017-Aug-10 05:30N 30°04' W 093°35'2 4.7
2017-Aug-10 05:00N 30°04' W 093°32'2 4.8
2017-Aug-10 04:30N 30°04' W 093°29'2 4.8
2017-Aug-10 04:00N 30°04' W 093°26'2 4.7
2017-Aug-10 03:30N 30°04' W 093°24'2 4.1
2017-Aug-10 03:00N 30°04' W 093°21'1 2.3
2017-Aug-10 02:30N 30°05' W 093°20'2 3.8
2017-Aug-10 02:00N 30°06' W 093°19'1 2.8
2017-Aug-10 01:30N 30°05' W 093°18'1 1.6
2017-Aug-10 01:00N 30°05' W 093°17'0 0.0
2017-Aug-10 00:30N 30°05' W 093°17'2 3.3
2017-Aug-10 00:00N 30°03' W 093°16'2 4.0
2017-Aug-09 23:30N 30°02' W 093°14'2 4.3
2017-Aug-09 23:00N 29°60' W 093°13'1 2.0
2017-Aug-09 22:30N 29°59' W 093°12'2 3.7
2017-Aug-09 22:00N 29°58' W 093°11'2 4.7
2017-Aug-09 21:30N 29°56' W 093°09'2 4.6
2017-Aug-09 21:00N 29°56' W 093°06'2 4.4
2017-Aug-09 20:30N 29°56' W 093°04'37 4.6
2017-Aug-09 12:28N 29°51' W 092°21'2 4.8
2017-Aug-09 12:00N 29°50' W 092°19'2 3.7
2017-Aug-09 11:30N 29°49' W 092°17'2 3.8
2017-Aug-09 11:00N 29°48' W 092°15'2 4.9
2017-Aug-09 10:30N 29°47' W 092°13'2 3.3
2017-Aug-09 10:00N 29°47' W 092°11'1 1.9
2017-Aug-09 09:30N 29°47' W 092°10'2 3.9
2017-Aug-09 09:00N 29°47' W 092°08'2 4.8
2017-Aug-09 08:30N 29°48' W 092°05'2 4.7
2017-Aug-09 08:00N 29°49' W 092°02'3 4.6
2017-Aug-09 07:27N 29°50' W 091°60'4 4.7
2017-Aug-09 06:39N 29°51' W 091°56'1 4.6
2017-Aug-09 06:27N 29°51' W 091°54'51 4.4
2017-Aug-08 18:58N 29°36' W 090°58'2 4.9
2017-Aug-08 18:30N 29°34' W 090°57'4 5.2
2017-Aug-08 17:46N 29°32' W 090°53'1 5.1
2017-Aug-08 17:30N 29°32' W 090°51'3 5.5
2017-Aug-08 17:00N 29°32' W 090°48'2 4.7
2017-Aug-08 16:30N 29°33' W 090°45'2 3.9
2017-Aug-08 16:00N 29°34' W 090°44'2 3.2
2017-Aug-08 15:30N 29°35' W 090°43'2 3.1
2017-Aug-08 15:00N 29°37' W 090°42'1 1.5
2017-Aug-08 14:30N 29°37' W 090°41'0 0.2
2017-Aug-08 14:00N 29°36' W 090°41'1 2.5
2017-Aug-08 13:30N 29°36' W 090°40'2 4.4
2017-Aug-08 13:00N 29°35' W 090°38'2 4.3
2017-Aug-08 12:30N 29°35' W 090°35'2 4.8
2017-Aug-08 12:00N 29°34' W 090°33'2 4.8
2017-Aug-08 11:30N 29°34' W 090°30'3 5.1
2017-Aug-08 10:52N 29°33' W 090°26'  

Dump ship's entire track history